sensor_id;sensor_type;location;lat;lon;timestamp;temperature;humidity
74178;DHT22;62540;48.456;-4.456;2023-04-24T00:00:42;11.86;64.60
74178;DHT22;62540;48.456;-4.456;2023-04-24T00:03:10;11.86;64.48
74178;DHT22;62540;48.456;-4.456;2023-04-24T00:05:36;11.86;64.56
74178;DHT22;62540;48.456;-4.456;2023-04-24T00:08:01;11.84;64.57
74178;DHT22;62540;48.456;-4.456;2023-04-24T00:10:27;11.84;64.54
74178;DHT22;62540;48.456;-4.456;2023-04-24T00:12:52;11.83;64.50
74178;DHT22;62540;48.456;-4.456;2023-04-24T00:15:18;11.83;64.50
74178;DHT22;62540;48.456;-4.456;2023-04-24T00:17:43;11.83;64.48
74178;DHT22;62540;48.456;-4.456;2023-04-24T00:20:09;11.79;64.44
74178;DHT22;62540;48.456;-4.456;2023-04-24T00:22:35;11.80;64.48
74178;DHT22;62540;48.456;-4.456;2023-04-24T00:25:01;11.76;64.52
74178;DHT22;62540;48.456;-4.456;2023-04-24T00:27:26;11.73;64.66
74178;DHT22;62540;48.456;-4.456;2023-04-24T00:29:51;11.73;64.60
74178;DHT22;62540;48.456;-4.456;2023-04-24T00:32:17;11.72;64.65
74178;DHT22;62540;48.456;-4.456;2023-04-24T00:34:43;11.72;64.62
74178;DHT22;62540;48.456;-4.456;2023-04-24T00:37:08;11.69;64.70
74178;DHT22;62540;48.456;-4.456;2023-04-24T00:39:34;11.70;64.64
74178;DHT22;62540;48.456;-4.456;2023-04-24T00:41:59;11.73;64.52
74178;DHT22;62540;48.456;-4.456;2023-04-24T00:44:25;11.70;64.60
74178;DHT22;62540;48.456;-4.456;2023-04-24T00:46:50;11.70;64.34
74178;DHT22;62540;48.456;-4.456;2023-04-24T00:49:20;11.67;64.21
74178;DHT22;62540;48.456;-4.456;2023-04-24T00:51:46;11.65;64.36
74178;DHT22;62540;48.456;-4.456;2023-04-24T00:54:12;11.59;64.42
74178;DHT22;62540;48.456;-4.456;2023-04-24T00:56:38;11.61;64.54
74178;DHT22;62540;48.456;-4.456;2023-04-24T00:59:04;11.58;64.82
74178;DHT22;62540;48.456;-4.456;2023-04-24T01:01:30;11.59;65.04
74178;DHT22;62540;48.456;-4.456;2023-04-24T01:03:57;11.59;65.20
74178;DHT22;62540;48.456;-4.456;2023-04-24T01:06:23;11.61;65.18
74178;DHT22;62540;48.456;-4.456;2023-04-24T01:08:52;11.62;65.10
74178;DHT22;62540;48.456;-4.456;2023-04-24T01:11:18;11.62;64.84
74178;DHT22;62540;48.456;-4.456;2023-04-24T01:13:44;11.58;64.90
74178;DHT22;62540;48.456;-4.456;2023-04-24T01:16:10;11.58;64.92
74178;DHT22;62540;48.456;-4.456;2023-04-24T01:18:35;11.58;65.08
74178;DHT22;62540;48.456;-4.456;2023-04-24T01:21:03;11.52;65.28
74178;DHT22;62540;48.456;-4.456;2023-04-24T01:23:29;11.49;65.53
74178;DHT22;62540;48.456;-4.456;2023-04-24T01:25:54;11.46;65.58
74178;DHT22;62540;48.456;-4.456;2023-04-24T01:28:21;11.46;65.79
74178;DHT22;62540;48.456;-4.456;2023-04-24T01:30:46;11.40;66.03
74178;DHT22;62540;48.456;-4.456;2023-04-24T01:33:12;11.40;66.24
74178;DHT22;62540;48.456;-4.456;2023-04-24T01:35:38;11.43;66.32
74178;DHT22;62540;48.456;-4.456;2023-04-24T01:38:04;11.49;66.36
74178;DHT22;62540;48.456;-4.456;2023-04-24T01:40:31;11.53;66.52
74178;DHT22;62540;48.456;-4.456;2023-04-24T01:42:57;11.52;66.61
74178;DHT22;62540;48.456;-4.456;2023-04-24T01:45:23;11.55;66.75
74178;DHT22;62540;48.456;-4.456;2023-04-24T01:47:49;11.59;66.87
74178;DHT22;62540;48.456;-4.456;2023-04-24T01:50:14;11.59;67.01
74178;DHT22;62540;48.456;-4.456;2023-04-24T01:52:40;11.62;67.05
74178;DHT22;62540;48.456;-4.456;2023-04-24T01:55:06;11.63;67.14
74178;DHT22;62540;48.456;-4.456;2023-04-24T01:57:32;11.67;67.17
74178;DHT22;62540;48.456;-4.456;2023-04-24T01:59:58;11.69;67.42
74178;DHT22;62540;48.456;-4.456;2023-04-24T02:02:23;11.73;67.37
74178;DHT22;62540;48.456;-4.456;2023-04-24T02:04:50;11.72;67.30
74178;DHT22;62540;48.456;-4.456;2023-04-24T02:07:15;11.73;67.29
74178;DHT22;62540;48.456;-4.456;2023-04-24T02:09:41;11.76;67.20
74178;DHT22;62540;48.456;-4.456;2023-04-24T02:12:06;11.76;67.06
74178;DHT22;62540;48.456;-4.456;2023-04-24T02:14:32;11.76;66.97
74178;DHT22;62540;48.456;-4.456;2023-04-24T02:16:57;11.74;66.92
74178;DHT22;62540;48.456;-4.456;2023-04-24T02:19:23;11.76;66.90
74178;DHT22;62540;48.456;-4.456;2023-04-24T02:21:48;11.74;66.87
74178;DHT22;62540;48.456;-4.456;2023-04-24T02:24:14;11.73;66.89
74178;DHT22;62540;48.456;-4.456;2023-04-24T02:26:39;11.73;66.82
74178;DHT22;62540;48.456;-4.456;2023-04-24T02:29:05;11.72;66.78
74178;DHT22;62540;48.456;-4.456;2023-04-24T02:31:30;11.73;66.82
74178;DHT22;62540;48.456;-4.456;2023-04-24T02:33:55;11.70;66.75
74178;DHT22;62540;48.456;-4.456;2023-04-24T02:36:21;11.69;66.78
74178;DHT22;62540;48.456;-4.456;2023-04-24T02:38:46;11.67;66.77
74178;DHT22;62540;48.456;-4.456;2023-04-24T02:41:12;11.63;66.72
74178;DHT22;62540;48.456;-4.456;2023-04-24T02:43:37;11.59;66.74
74178;DHT22;62540;48.456;-4.456;2023-04-24T02:46:02;11.59;66.81
74178;DHT22;62540;48.456;-4.456;2023-04-24T02:48:28;11.58;66.79
74178;DHT22;62540;48.456;-4.456;2023-04-24T02:50:54;11.53;66.83
74178;DHT22;62540;48.456;-4.456;2023-04-24T02:53:19;11.51;66.98
74178;DHT22;62540;48.456;-4.456;2023-04-24T02:55:45;11.47;67.01
74178;DHT22;62540;48.456;-4.456;2023-04-24T02:58:11;11.46;67.10
74178;DHT22;62540;48.456;-4.456;2023-04-24T03:00:38;11.45;67.06
74178;DHT22;62540;48.456;-4.456;2023-04-24T03:03:03;11.43;66.95
74178;DHT22;62540;48.456;-4.456;2023-04-24T03:05:29;11.42;66.87
74178;DHT22;62540;48.456;-4.456;2023-04-24T03:07:56;11.39;66.84
74178;DHT22;62540;48.456;-4.456;2023-04-24T03:10:21;11.35;66.67
74178;DHT22;62540;48.456;-4.456;2023-04-24T03:12:49;11.29;66.68
74178;DHT22;62540;48.456;-4.456;2023-04-24T03:15:15;11.32;66.62
74178;DHT22;62540;48.456;-4.456;2023-04-24T03:17:41;11.29;66.57
74178;DHT22;62540;48.456;-4.456;2023-04-24T03:20:07;11.25;66.63
74178;DHT22;62540;48.456;-4.456;2023-04-24T03:22:35;11.22;66.71
74178;DHT22;62540;48.456;-4.456;2023-04-24T03:25:01;11.19;66.81
74178;DHT22;62540;48.456;-4.456;2023-04-24T03:27:27;11.21;66.90
74178;DHT22;62540;48.456;-4.456;2023-04-24T03:29:52;11.18;67.00
74178;DHT22;62540;48.456;-4.456;2023-04-24T03:32:21;11.15;67.06
74178;DHT22;62540;48.456;-4.456;2023-04-24T03:34:47;11.16;67.16
74178;DHT22;62540;48.456;-4.456;2023-04-24T03:37:13;11.15;67.30
74178;DHT22;62540;48.456;-4.456;2023-04-24T03:39:38;11.18;67.54
74178;DHT22;62540;48.456;-4.456;2023-04-24T03:42:04;11.16;67.71
74178;DHT22;62540;48.456;-4.456;2023-04-24T03:44:29;11.18;67.81
74178;DHT22;62540;48.456;-4.456;2023-04-24T03:46:55;11.16;67.87
74178;DHT22;62540;48.456;-4.456;2023-04-24T03:49:20;11.16;67.74
74178;DHT22;62540;48.456;-4.456;2023-04-24T03:51:45;11.18;67.76
74178;DHT22;62540;48.456;-4.456;2023-04-24T03:54:11;11.16;67.60
74178;DHT22;62540;48.456;-4.456;2023-04-24T03:56:36;11.16;67.59
74178;DHT22;62540;48.456;-4.456;2023-04-24T03:59:02;11.14;67.70
74178;DHT22;62540;48.456;-4.456;2023-04-24T04:01:27;11.11;67.71
74178;DHT22;62540;48.456;-4.456;2023-04-24T04:03:53;11.14;67.63
74178;DHT22;62540;48.456;-4.456;2023-04-24T04:06:18;11.10;67.63
74178;DHT22;62540;48.456;-4.456;2023-04-24T04:08:44;11.07;67.63
74178;DHT22;62540;48.456;-4.456;2023-04-24T04:11:10;11.05;67.50
74178;DHT22;62540;48.456;-4.456;2023-04-24T04:13:35;11.07;67.39
74178;DHT22;62540;48.456;-4.456;2023-04-24T04:16:00;11.01;67.45
74178;DHT22;62540;48.456;-4.456;2023-04-24T04:18:26;11.00;67.47
74178;DHT22;62540;48.456;-4.456;2023-04-24T04:20:51;10.97;67.51
74178;DHT22;62540;48.456;-4.456;2023-04-24T04:23:17;10.93;67.49
74178;DHT22;62540;48.456;-4.456;2023-04-24T04:25:42;10.94;67.56
74178;DHT22;62540;48.456;-4.456;2023-04-24T04:28:07;10.93;67.54
74178;DHT22;62540;48.456;-4.456;2023-04-24T04:30:33;10.90;67.63
74178;DHT22;62540;48.456;-4.456;2023-04-24T04:32:59;10.90;67.73
74178;DHT22;62540;48.456;-4.456;2023-04-24T04:35:24;10.88;67.68
74178;DHT22;62540;48.456;-4.456;2023-04-24T04:37:50;10.85;67.77
74178;DHT22;62540;48.456;-4.456;2023-04-24T04:40:16;10.87;67.89
74178;DHT22;62540;48.456;-4.456;2023-04-24T04:42:42;10.85;67.96
74178;DHT22;62540;48.456;-4.456;2023-04-24T04:45:11;10.85;67.89
74178;DHT22;62540;48.456;-4.456;2023-04-24T04:47:36;10.84;67.89
74178;DHT22;62540;48.456;-4.456;2023-04-24T04:50:02;10.81;67.92
74178;DHT22;62540;48.456;-4.456;2023-04-24T04:52:29;10.81;67.89
74178;DHT22;62540;48.456;-4.456;2023-04-24T04:54:55;10.81;68.11
74178;DHT22;62540;48.456;-4.456;2023-04-24T04:57:20;10.76;68.26
74178;DHT22;62540;48.456;-4.456;2023-04-24T04:59:46;10.76;68.30
74178;DHT22;62540;48.456;-4.456;2023-04-24T05:02:12;10.71;68.34
74178;DHT22;62540;48.456;-4.456;2023-04-24T05:04:37;10.71;68.51
74178;DHT22;62540;48.456;-4.456;2023-04-24T05:07:03;10.70;68.48
74178;DHT22;62540;48.456;-4.456;2023-04-24T05:09:28;10.68;68.55
74178;DHT22;62540;48.456;-4.456;2023-04-24T05:11:55;10.67;68.48
74178;DHT22;62540;48.456;-4.456;2023-04-24T05:14:20;10.67;68.55
74178;DHT22;62540;48.456;-4.456;2023-04-24T05:16:46;10.68;68.65
74178;DHT22;62540;48.456;-4.456;2023-04-24T05:19:11;10.74;68.80
74178;DHT22;62540;48.456;-4.456;2023-04-24T05:21:39;10.76;68.73
74178;DHT22;62540;48.456;-4.456;2023-04-24T05:24:04;10.81;68.87
74178;DHT22;62540;48.456;-4.456;2023-04-24T05:26:30;10.81;69.07
74178;DHT22;62540;48.456;-4.456;2023-04-24T05:28:56;10.88;69.21
74178;DHT22;62540;48.456;-4.456;2023-04-24T05:31:21;10.94;69.41
74178;DHT22;62540;48.456;-4.456;2023-04-24T05:33:47;11.01;69.62
74178;DHT22;62540;48.456;-4.456;2023-04-24T05:36:12;11.08;69.91
74178;DHT22;62540;48.456;-4.456;2023-04-24T05:38:38;11.22;70.06
74178;DHT22;62540;48.456;-4.456;2023-04-24T05:41:03;11.39;70.04
74178;DHT22;62540;48.456;-4.456;2023-04-24T05:43:29;11.55;69.87
74178;DHT22;62540;48.456;-4.456;2023-04-24T05:45:54;11.73;69.70
74178;DHT22;62540;48.456;-4.456;2023-04-24T05:48:20;11.91;69.43
74178;DHT22;62540;48.456;-4.456;2023-04-24T05:50:47;12.08;68.94
74178;DHT22;62540;48.456;-4.456;2023-04-24T05:53:13;12.14;68.67
74178;DHT22;62540;48.456;-4.456;2023-04-24T05:55:38;12.27;68.26
74178;DHT22;62540;48.456;-4.456;2023-04-24T05:58:04;12.30;68.07
74178;DHT22;62540;48.456;-4.456;2023-04-24T06:00:30;12.32;67.92
74178;DHT22;62540;48.456;-4.456;2023-04-24T06:02:55;12.34;67.86
74178;DHT22;62540;48.456;-4.456;2023-04-24T06:05:20;12.34;67.84
74178;DHT22;62540;48.456;-4.456;2023-04-24T06:07:46;12.37;67.76
74178;DHT22;62540;48.456;-4.456;2023-04-24T06:10:11;12.40;67.70
74178;DHT22;62540;48.456;-4.456;2023-04-24T06:12:37;12.40;67.53
74178;DHT22;62540;48.456;-4.456;2023-04-24T06:15:03;12.42;67.50
74178;DHT22;62540;48.456;-4.456;2023-04-24T06:17:28;12.40;67.56
74178;DHT22;62540;48.456;-4.456;2023-04-24T06:19:54;12.38;67.67
74178;DHT22;62540;48.456;-4.456;2023-04-24T06:22:19;12.37;67.67
74178;DHT22;62540;48.456;-4.456;2023-04-24T06:24:45;12.40;67.86
74178;DHT22;62540;48.456;-4.456;2023-04-24T06:27:10;12.45;67.97
74178;DHT22;62540;48.456;-4.456;2023-04-24T06:29:36;12.45;67.94
74178;DHT22;62540;48.456;-4.456;2023-04-24T06:32:01;12.49;67.97
74178;DHT22;62540;48.456;-4.456;2023-04-24T06:34:27;12.48;68.26
74178;DHT22;62540;48.456;-4.456;2023-04-24T06:36:53;12.48;68.21
74178;DHT22;62540;48.456;-4.456;2023-04-24T06:39:20;12.53;68.03
74178;DHT22;62540;48.456;-4.456;2023-04-24T06:41:45;12.55;68.35
74178;DHT22;62540;48.456;-4.456;2023-04-24T06:44:10;12.59;68.30
74178;DHT22;62540;48.456;-4.456;2023-04-24T06:46:36;12.62;68.24
74178;DHT22;62540;48.456;-4.456;2023-04-24T06:49:01;12.66;68.30
74178;DHT22;62540;48.456;-4.456;2023-04-24T06:51:27;12.69;68.36
74178;DHT22;62540;48.456;-4.456;2023-04-24T06:53:55;12.75;68.42
74178;DHT22;62540;48.456;-4.456;2023-04-24T06:56:23;12.82;68.35
74178;DHT22;62540;48.456;-4.456;2023-04-24T06:58:49;12.89;68.64
74178;DHT22;62540;48.456;-4.456;2023-04-24T07:01:14;12.93;68.48
74178;DHT22;62540;48.456;-4.456;2023-04-24T07:03:40;13.04;68.58
74178;DHT22;62540;48.456;-4.456;2023-04-24T07:06:05;13.11;68.56
74178;DHT22;62540;48.456;-4.456;2023-04-24T07:08:31;13.24;68.59
74178;DHT22;62540;48.456;-4.456;2023-04-24T07:10:58;13.33;68.44
74178;DHT22;62540;48.456;-4.456;2023-04-24T07:13:23;13.46;68.28
74178;DHT22;62540;48.456;-4.456;2023-04-24T07:15:49;13.51;68.29
74178;DHT22;62540;48.456;-4.456;2023-04-24T07:18:16;13.65;68.00
74178;DHT22;62540;48.456;-4.456;2023-04-24T07:20:42;13.78;67.82
74178;DHT22;62540;48.456;-4.456;2023-04-24T07:23:08;13.89;67.51
74178;DHT22;62540;48.456;-4.456;2023-04-24T07:25:33;14.02;67.74
74178;DHT22;62540;48.456;-4.456;2023-04-24T07:27:59;14.13;67.48
74178;DHT22;62540;48.456;-4.456;2023-04-24T07:30:24;14.40;67.25
74178;DHT22;62540;48.456;-4.456;2023-04-24T07:32:50;14.84;66.76
74178;DHT22;62540;48.456;-4.456;2023-04-24T07:35:16;15.12;65.25
74178;DHT22;62540;48.456;-4.456;2023-04-24T07:37:41;15.26;65.54
74178;DHT22;62540;48.456;-4.456;2023-04-24T07:40:12;15.57;65.31
74178;DHT22;62540;48.456;-4.456;2023-04-24T07:42:37;16.21;64.74
74178;DHT22;62540;48.456;-4.456;2023-04-24T07:45:04;16.97;63.99
74178;DHT22;62540;48.456;-4.456;2023-04-24T07:47:29;17.27;62.62
74178;DHT22;62540;48.456;-4.456;2023-04-24T07:49:55;17.42;61.51
74178;DHT22;62540;48.456;-4.456;2023-04-24T07:52:21;17.64;61.34
74178;DHT22;62540;48.456;-4.456;2023-04-24T07:54:46;17.62;60.99
74178;DHT22;62540;48.456;-4.456;2023-04-24T07:57:11;17.69;58.88
74178;DHT22;62540;48.456;-4.456;2023-04-24T07:59:37;17.92;58.62
74178;DHT22;62540;48.456;-4.456;2023-04-24T08:02:02;17.90;59.88
74178;DHT22;62540;48.456;-4.456;2023-04-24T08:04:28;17.78;59.80
74178;DHT22;62540;48.456;-4.456;2023-04-24T08:06:53;17.57;59.88
74178;DHT22;62540;48.456;-4.456;2023-04-24T08:09:19;17.42;60.74
74178;DHT22;62540;48.456;-4.456;2023-04-24T08:11:44;17.35;61.08
74178;DHT22;62540;48.456;-4.456;2023-04-24T08:14:10;17.24;60.75
74178;DHT22;62540;48.456;-4.456;2023-04-24T08:16:37;17.13;61.32
74178;DHT22;62540;48.456;-4.456;2023-04-24T08:19:03;16.96;61.23
74178;DHT22;62540;48.456;-4.456;2023-04-24T08:21:28;16.80;61.99
74178;DHT22;62540;48.456;-4.456;2023-04-24T08:23:53;16.65;62.36
74178;DHT22;62540;48.456;-4.456;2023-04-24T08:26:19;16.55;62.70
74178;DHT22;62540;48.456;-4.456;2023-04-24T08:28:44;16.45;62.31
74178;DHT22;62540;48.456;-4.456;2023-04-24T08:31:10;16.44;62.57
74178;DHT22;62540;48.456;-4.456;2023-04-24T08:33:35;16.52;62.03
74178;DHT22;62540;48.456;-4.456;2023-04-24T08:36:03;16.96;61.67
74178;DHT22;62540;48.456;-4.456;2023-04-24T08:38:28;17.68;61.11
74178;DHT22;62540;48.456;-4.456;2023-04-24T08:40:54;18.48;58.86
74178;DHT22;62540;48.456;-4.456;2023-04-24T08:43:21;19.23;56.29
74178;DHT22;62540;48.456;-4.456;2023-04-24T08:45:47;19.71;52.29
74178;DHT22;62540;48.456;-4.456;2023-04-24T08:48:13;20.04;54.96
74178;DHT22;62540;48.456;-4.456;2023-04-24T08:50:40;20.33;52.64
74178;DHT22;62540;48.456;-4.456;2023-04-24T08:53:08;20.32;52.60
74178;DHT22;62540;48.456;-4.456;2023-04-24T08:55:34;20.15;53.01
74178;DHT22;62540;48.456;-4.456;2023-04-24T08:58:01;19.93;50.09
74178;DHT22;62540;48.456;-4.456;2023-04-24T09:00:28;19.60;49.97
74178;DHT22;62540;48.456;-4.456;2023-04-24T09:02:54;19.35;50.15
74178;DHT22;62540;48.456;-4.456;2023-04-24T09:05:21;19.19;52.36
74178;DHT22;62540;48.456;-4.456;2023-04-24T09:07:54;19.02;53.26
74178;DHT22;62540;48.456;-4.456;2023-04-24T09:10:20;18.78;52.73
74178;DHT22;62540;48.456;-4.456;2023-04-24T09:12:46;18.63;51.75
74178;DHT22;62540;48.456;-4.456;2023-04-24T09:15:11;18.46;52.12
74178;DHT22;62540;48.456;-4.456;2023-04-24T09:17:38;18.36;53.09
74178;DHT22;62540;48.456;-4.456;2023-04-24T09:20:04;18.33;52.78
74178;DHT22;62540;48.456;-4.456;2023-04-24T09:22:30;18.25;54.15
74178;DHT22;62540;48.456;-4.456;2023-04-24T09:25:04;18.23;53.62
74178;DHT22;62540;48.456;-4.456;2023-04-24T09:27:31;18.22;52.85
74178;DHT22;62540;48.456;-4.456;2023-04-24T09:29:57;18.10;52.76
74178;DHT22;62540;48.456;-4.456;2023-04-24T09:32:23;18.13;53.78
74178;DHT22;62540;48.456;-4.456;2023-04-24T09:35:14;18.30;53.55
74178;DHT22;62540;48.456;-4.456;2023-04-24T09:37:45;18.51;52.62
74178;DHT22;62540;48.456;-4.456;2023-04-24T09:42:38;19.08;52.75
74178;DHT22;62540;48.456;-4.456;2023-04-24T09:45:08;19.42;51.28
74178;DHT22;62540;48.456;-4.456;2023-04-24T09:47:40;19.53;51.95
74178;DHT22;62540;48.456;-4.456;2023-04-24T09:50:16;19.45;51.27
74178;DHT22;62540;48.456;-4.456;2023-04-24T09:52:47;19.39;51.36
74178;DHT22;62540;48.456;-4.456;2023-04-24T09:55:20;19.23;50.34
74178;DHT22;62540;48.456;-4.456;2023-04-24T09:58:00;19.06;51.80
74178;DHT22;62540;48.456;-4.456;2023-04-24T10:00:31;19.05;51.61
74178;DHT22;62540;48.456;-4.456;2023-04-24T10:02:58;18.91;52.10
74178;DHT22;62540;48.456;-4.456;2023-04-24T10:05:26;18.84;52.78
74178;DHT22;62540;48.456;-4.456;2023-04-24T10:07:56;18.85;52.48
74178;DHT22;62540;48.456;-4.456;2023-04-24T10:10:22;18.83;52.02
74178;DHT22;62540;48.456;-4.456;2023-04-24T10:12:48;18.75;51.33
74178;DHT22;62540;48.456;-4.456;2023-04-24T10:15:16;18.79;53.17
74178;DHT22;62540;48.456;-4.456;2023-04-24T10:17:49;18.92;52.35
74178;DHT22;62540;48.456;-4.456;2023-04-24T10:20:23;19.02;51.08
74178;DHT22;62540;48.456;-4.456;2023-04-24T10:22:51;19.22;50.39
74178;DHT22;62540;48.456;-4.456;2023-04-24T10:25:22;19.42;49.79
74178;DHT22;62540;48.456;-4.456;2023-04-24T10:27:49;19.71;49.56
74178;DHT22;62540;48.456;-4.456;2023-04-24T10:30:16;20.07;49.14
74178;DHT22;62540;48.456;-4.456;2023-04-24T10:32:41;20.31;48.77
74178;DHT22;62540;48.456;-4.456;2023-04-24T10:35:08;20.70;49.69
74178;DHT22;62540;48.456;-4.456;2023-04-24T10:37:37;21.06;49.10
74178;DHT22;62540;48.456;-4.456;2023-04-24T10:40:04;21.18;47.65
74178;DHT22;62540;48.456;-4.456;2023-04-24T10:42:30;21.06;45.71
74178;DHT22;62540;48.456;-4.456;2023-04-24T10:44:56;20.80;47.66
74178;DHT22;62540;48.456;-4.456;2023-04-24T10:47:23;20.46;47.43
74178;DHT22;62540;48.456;-4.456;2023-04-24T10:49:51;20.14;47.73
74178;DHT22;62540;48.456;-4.456;2023-04-24T10:52:16;19.69;48.75
74178;DHT22;62540;48.456;-4.456;2023-04-24T10:54:47;19.42;49.96
74178;DHT22;62540;48.456;-4.456;2023-04-24T10:59:45;19.23;50.03
74178;DHT22;62540;48.456;-4.456;2023-04-24T11:02:10;19.27;50.41
74178;DHT22;62540;48.456;-4.456;2023-04-24T11:04:36;19.42;50.56
74178;DHT22;62540;48.456;-4.456;2023-04-24T11:07:05;19.49;50.16
74178;DHT22;62540;48.456;-4.456;2023-04-24T11:09:31;19.46;46.96
74178;DHT22;62540;48.456;-4.456;2023-04-24T11:12:05;19.62;48.96
74178;DHT22;62540;48.456;-4.456;2023-04-24T11:17:35;20.52;50.02
74178;DHT22;62540;48.456;-4.456;2023-04-24T11:20:16;20.96;45.99
74178;DHT22;62540;48.456;-4.456;2023-04-24T11:22:41;21.34;45.86
74178;DHT22;62540;48.456;-4.456;2023-04-24T11:25:08;21.44;43.12
74178;DHT22;62540;48.456;-4.456;2023-04-24T11:27:42;21.65;43.64
74178;DHT22;62540;48.456;-4.456;2023-04-24T11:30:09;21.83;43.44
74178;DHT22;62540;48.456;-4.456;2023-04-24T11:32:36;22.09;42.77
74178;DHT22;62540;48.456;-4.456;2023-04-24T11:37:32;22.05;41.94
74178;DHT22;62540;48.456;-4.456;2023-04-24T11:39:58;22.07;42.69
74178;DHT22;62540;48.456;-4.456;2023-04-24T11:42:24;22.10;42.44
74178;DHT22;62540;48.456;-4.456;2023-04-24T11:44:52;22.05;42.79
74178;DHT22;62540;48.456;-4.456;2023-04-24T11:47:18;21.96;42.60
74178;DHT22;62540;48.456;-4.456;2023-04-24T11:49:44;21.78;43.84
74178;DHT22;62540;48.456;-4.456;2023-04-24T11:52:09;21.66;41.49
74178;DHT22;62540;48.456;-4.456;2023-04-24T11:54:36;21.31;43.23
74178;DHT22;62540;48.456;-4.456;2023-04-24T11:57:04;21.04;43.40
74178;DHT22;62540;48.456;-4.456;2023-04-24T11:59:35;20.68;44.56
74178;DHT22;62540;48.456;-4.456;2023-04-24T12:02:01;20.55;44.70
74178;DHT22;62540;48.456;-4.456;2023-04-24T12:04:27;20.29;45.58
74178;DHT22;62540;48.456;-4.456;2023-04-24T12:07:03;20.05;46.40
74178;DHT22;62540;48.456;-4.456;2023-04-24T12:09:40;19.67;47.24
74178;DHT22;62540;48.456;-4.456;2023-04-24T12:12:06;19.49;47.66
74178;DHT22;62540;48.456;-4.456;2023-04-24T12:14:32;19.40;47.92
74178;DHT22;62540;48.456;-4.456;2023-04-24T12:16:57;19.62;49.23
74178;DHT22;62540;48.456;-4.456;2023-04-24T12:19:23;20.12;47.59
74178;DHT22;62540;48.456;-4.456;2023-04-24T12:22:03;20.65;47.70
74178;DHT22;62540;48.456;-4.456;2023-04-24T12:24:30;20.96;46.41
74178;DHT22;62540;48.456;-4.456;2023-04-24T12:26:56;21.04;45.07
74178;DHT22;62540;48.456;-4.456;2023-04-24T12:29:22;21.07;45.97
74178;DHT22;62540;48.456;-4.456;2023-04-24T12:31:48;20.96;43.69
74178;DHT22;62540;48.456;-4.456;2023-04-24T12:34:31;20.99;44.53
74178;DHT22;62540;48.456;-4.456;2023-04-24T12:37:09;21.14;45.82
74178;DHT22;62540;48.456;-4.456;2023-04-24T12:39:35;21.21;44.25
74178;DHT22;62540;48.456;-4.456;2023-04-24T12:42:00;21.38;45.18
74178;DHT22;62540;48.456;-4.456;2023-04-24T12:44:34;21.63;43.72
74178;DHT22;62540;48.456;-4.456;2023-04-24T12:47:00;21.55;42.11
74178;DHT22;62540;48.456;-4.456;2023-04-24T12:49:26;21.38;44.33
74178;DHT22;62540;48.456;-4.456;2023-04-24T12:51:52;21.11;42.26
74178;DHT22;62540;48.456;-4.456;2023-04-24T12:54:18;21.06;43.75
74178;DHT22;62540;48.456;-4.456;2023-04-24T12:56:43;21.10;44.96
74178;DHT22;62540;48.456;-4.456;2023-04-24T12:59:09;21.20;43.83
74178;DHT22;62540;48.456;-4.456;2023-04-24T13:01:34;21.07;43.34
74178;DHT22;62540;48.456;-4.456;2023-04-24T13:04:00;20.94;44.30
74178;DHT22;62540;48.456;-4.456;2023-04-24T13:06:25;20.96;44.72
74178;DHT22;62540;48.456;-4.456;2023-04-24T13:08:51;20.83;44.76
74178;DHT22;62540;48.456;-4.456;2023-04-24T13:11:17;20.79;45.20
74178;DHT22;62540;48.456;-4.456;2023-04-24T13:13:43;20.70;45.58
74178;DHT22;62540;48.456;-4.456;2023-04-24T13:16:08;20.75;45.98
74178;DHT22;62540;48.456;-4.456;2023-04-24T13:18:34;20.76;45.83
74178;DHT22;62540;48.456;-4.456;2023-04-24T13:20:59;20.69;45.22
74178;DHT22;62540;48.456;-4.456;2023-04-24T13:23:25;20.62;44.90
74178;DHT22;62540;48.456;-4.456;2023-04-24T13:25:50;20.43;45.97
74178;DHT22;62540;48.456;-4.456;2023-04-24T13:28:15;20.25;45.77
74178;DHT22;62540;48.456;-4.456;2023-04-24T13:30:41;20.01;47.98
74178;DHT22;62540;48.456;-4.456;2023-04-24T13:33:06;19.74;50.04
74178;DHT22;62540;48.456;-4.456;2023-04-24T13:35:31;19.59;52.24
74178;DHT22;62540;48.456;-4.456;2023-04-24T13:37:58;19.46;52.39
74178;DHT22;62540;48.456;-4.456;2023-04-24T13:40:23;19.43;55.92
74178;DHT22;62540;48.456;-4.456;2023-04-24T13:42:49;19.59;55.18
74178;DHT22;62540;48.456;-4.456;2023-04-24T13:45:14;19.77;56.63
74178;DHT22;62540;48.456;-4.456;2023-04-24T13:47:40;19.91;55.10
74178;DHT22;62540;48.456;-4.456;2023-04-24T13:50:07;19.93;54.10
74178;DHT22;62540;48.456;-4.456;2023-04-24T13:52:33;20.00;53.65
74178;DHT22;62540;48.456;-4.456;2023-04-24T13:54:59;20.12;53.15
74178;DHT22;62540;48.456;-4.456;2023-04-24T13:57:24;20.08;51.89
74178;DHT22;62540;48.456;-4.456;2023-04-24T13:59:50;20.05;51.84
74178;DHT22;62540;48.456;-4.456;2023-04-24T14:02:15;20.12;50.89
74178;DHT22;62540;48.456;-4.456;2023-04-24T14:04:40;20.21;50.17
74178;DHT22;62540;48.456;-4.456;2023-04-24T14:07:06;20.36;49.99
74178;DHT22;62540;48.456;-4.456;2023-04-24T14:09:33;20.46;49.30
74178;DHT22;62540;48.456;-4.456;2023-04-24T14:11:58;20.59;49.01
74178;DHT22;62540;48.456;-4.456;2023-04-24T14:14:26;20.57;48.09
74178;DHT22;62540;48.456;-4.456;2023-04-24T14:16:51;20.60;47.98
74178;DHT22;62540;48.456;-4.456;2023-04-24T14:19:17;20.43;46.90
74178;DHT22;62540;48.456;-4.456;2023-04-24T14:21:42;20.46;48.67
74178;DHT22;62540;48.456;-4.456;2023-04-24T14:24:08;20.43;47.11
74178;DHT22;62540;48.456;-4.456;2023-04-24T14:26:34;20.32;46.59
74178;DHT22;62540;48.456;-4.456;2023-04-24T14:28:59;20.26;47.66
74178;DHT22;62540;48.456;-4.456;2023-04-24T14:31:25;19.95;45.49
74178;DHT22;62540;48.456;-4.456;2023-04-24T14:33:50;19.81;47.42
74178;DHT22;62540;48.456;-4.456;2023-04-24T14:36:16;19.66;47.00
74178;DHT22;62540;48.456;-4.456;2023-04-24T14:38:41;19.49;48.07
74178;DHT22;62540;48.456;-4.456;2023-04-24T14:41:07;19.27;48.39
74178;DHT22;62540;48.456;-4.456;2023-04-24T14:43:35;19.19;48.91
74178;DHT22;62540;48.456;-4.456;2023-04-24T14:46:01;19.30;48.57
74178;DHT22;62540;48.456;-4.456;2023-04-24T14:48:27;19.29;48.35
74178;DHT22;62540;48.456;-4.456;2023-04-24T14:50:53;19.27;48.40
74178;DHT22;62540;48.456;-4.456;2023-04-24T14:53:18;19.23;47.29
74178;DHT22;62540;48.456;-4.456;2023-04-24T14:55:44;19.22;48.17
74178;DHT22;62540;48.456;-4.456;2023-04-24T14:58:09;19.18;48.57
74178;DHT22;62540;48.456;-4.456;2023-04-24T15:00:35;19.30;47.97
74178;DHT22;62540;48.456;-4.456;2023-04-24T15:03:01;19.29;47.80
74178;DHT22;62540;48.456;-4.456;2023-04-24T15:05:26;19.39;48.94
74178;DHT22;62540;48.456;-4.456;2023-04-24T15:07:52;19.50;47.37
74178;DHT22;62540;48.456;-4.456;2023-04-24T15:10:17;19.59;49.04
74178;DHT22;62540;48.456;-4.456;2023-04-24T15:12:43;19.59;48.81
74178;DHT22;62540;48.456;-4.456;2023-04-24T15:15:09;19.70;47.98
74178;DHT22;62540;48.456;-4.456;2023-04-24T15:17:34;19.62;46.14
74178;DHT22;62540;48.456;-4.456;2023-04-24T15:20:00;19.46;46.68